Weather at Manchester Airport

Public forecast

Using degrees Celsius for public forecast. Weather courtesy of forecast.io.

Current aviation weather report (METAR) for Manchester Airport

2024/05/25 22:20 (retrieved 34 minutes ago)

EGCC 252220Z AUTO 11003KT 030V200 9999 NCD 13/10 Q1013 NOSIG

Aviation forecast (TAF) for Manchester Airport

2024/05/25 18:00 (retrieved 5 hours ago)

TAF EGCC 251706Z 2518/2624 11008KT 9999 FEW015 SCT025 PROB30 TEMPO 2522/2603 6000 RA -RADZ BKN014 TEMPO 2603/2608 6000 RA -RADZ BKN012 TEMPO 2608/2619 3000 +SHRA +TSRA BKN009 BKN025CB